createdAt,value
2019-02-25T00:01:07.570Z,20.32
2019-02-25T00:03:38.845Z,22.77
2019-02-25T00:06:11.009Z,22.60
2019-02-25T00:08:42.311Z,23.32
2019-02-25T00:11:13.586Z,24.02
2019-02-25T00:13:44.875Z,20.68
2019-02-25T00:16:16.171Z,21.40
2019-02-25T00:18:47.537Z,21.70
2019-02-25T00:21:18.672Z,21.52
2019-02-25T00:23:49.942Z,21.07
2019-02-25T00:26:22.476Z,19.73
2019-02-25T00:28:53.722Z,19.50
2019-02-25T00:31:35.627Z,19.90
2019-02-25T00:34:07.206Z,20.62
2019-02-25T00:36:38.538Z,20.20
2019-02-25T00:39:10.072Z,21.33
2019-02-25T00:41:41.488Z,21.02
2019-02-25T00:44:12.778Z,22.25
2019-02-25T00:46:43.891Z,22.20
2019-02-25T00:49:15.313Z,22.27
2019-02-25T00:51:46.515Z,22.52
2019-02-25T00:54:17.725Z,25.15
2019-02-25T00:56:49.043Z,24.20
2019-02-25T00:59:20.386Z,22.90
2019-02-25T01:01:51.581Z,23.00
2019-02-25T01:04:22.839Z,21.50
2019-02-25T01:06:54.045Z,21.77
2019-02-25T01:09:36.553Z,23.05
2019-02-25T01:12:09.804Z,22.42
2019-02-25T01:14:42.779Z,21.52
2019-02-25T01:17:25.194Z,21.35
2019-02-25T01:19:56.550Z,21.85
2019-02-25T01:22:28.186Z,22.87
2019-02-25T01:25:00.305Z,22.35
2019-02-25T01:27:31.755Z,22.10
2019-02-25T01:30:03.039Z,21.27
2019-02-25T01:32:34.855Z,22.07
2019-02-25T01:35:07.017Z,21.20
2019-02-25T01:37:38.227Z,21.52
2019-02-25T01:40:10.701Z,21.93
2019-02-25T01:42:42.021Z,23.42
2019-02-25T01:45:13.903Z,23.62
2019-02-25T01:47:46.864Z,23.75
2019-02-25T01:50:18.159Z,22.85
2019-02-25T01:52:49.522Z,22.82
2019-02-25T01:55:20.962Z,22.40
2019-02-25T01:57:52.154Z,23.45
2019-02-25T02:00:23.531Z,23.55
2019-02-25T02:02:54.804Z,22.98
2019-02-25T02:05:26.289Z,22.60
2019-02-25T02:07:57.604Z,23.45
2019-02-25T02:10:30.064Z,22.77
2019-02-25T02:13:01.492Z,21.33
2019-02-25T02:15:32.713Z,22.62
2019-02-25T02:18:04.296Z,21.68
2019-02-25T02:20:35.638Z,22.10
2019-02-25T02:23:06.886Z,22.05
2019-02-25T02:25:38.191Z,22.58
2019-02-25T02:28:20.883Z,21.77
2019-02-25T02:30:52.440Z,22.40
2019-02-25T02:33:23.584Z,20.92
2019-02-25T02:35:56.708Z,20.85
2019-02-25T02:38:27.894Z,20.68
2019-02-25T02:41:00.234Z,20.82
2019-02-25T02:43:31.583Z,21.80
2019-02-25T02:46:27.458Z,21.52
2019-02-25T02:49:02.381Z,21.10
2019-02-25T02:51:33.689Z,25.15
2019-02-25T02:54:04.972Z,23.55
2019-02-25T02:56:36.244Z,21.85
2019-02-25T02:59:07.558Z,21.20
2019-02-25T03:01:38.661Z,21.48
2019-02-25T03:04:09.866Z,21.75
2019-02-25T03:06:41.267Z,22.15
2019-02-25T03:09:13.019Z,24.12
2019-02-25T03:11:44.556Z,29.25
2019-02-25T03:14:15.778Z,28.32
2019-02-25T03:16:47.111Z,31.52
2019-02-25T03:19:19.154Z,31.50
2019-02-25T03:21:50.401Z,24.98
2019-02-25T03:24:21.632Z,27.60
2019-02-25T03:26:53.117Z,32.90
2019-02-25T03:29:24.541Z,29.37
2019-02-25T03:31:55.969Z,30.45
2019-02-25T03:34:27.561Z,33.28
2019-02-25T03:37:10.545Z,34.50
2019-02-25T03:39:41.937Z,34.92
2019-02-25T03:42:14.126Z,30.72
2019-02-25T03:44:45.627Z,31.25
2019-02-25T03:47:17.239Z,27.93
2019-02-25T03:49:48.617Z,29.20
2019-02-25T03:52:19.939Z,34.80
2019-02-25T03:54:52.216Z,36.35
2019-02-25T03:57:24.111Z,33.53
2019-02-25T03:59:56.347Z,33.73
2019-02-25T04:02:27.828Z,32.50
2019-02-25T04:04:59.264Z,35.23
2019-02-25T04:07:30.591Z,34.35
2019-02-25T04:10:01.737Z,34.13
2019-02-25T04:12:33.102Z,29.75
2019-02-25T04:15:05.274Z,30.68
2019-02-25T04:17:36.590Z,31.23
2019-02-25T04:20:10.893Z,26.90
2019-02-25T04:22:42.344Z,28.70
2019-02-25T04:25:13.639Z,27.98
2019-02-25T04:27:44.832Z,24.18
2019-02-25T04:30:27.680Z,28.52
2019-02-25T04:32:58.897Z,28.27
2019-02-25T04:35:31.061Z,27.20
2019-02-25T04:38:03.112Z,28.05
2019-02-25T04:40:34.549Z,27.85
2019-02-25T04:43:06.870Z,27.95
2019-02-25T04:45:56.778Z,26.93
2019-02-25T04:48:28.171Z,28.55
2019-02-25T04:50:59.515Z,30.68
2019-02-25T04:53:42.489Z,29.48
2019-02-25T04:56:13.813Z,35.03
2019-02-25T04:58:46.010Z,30.43
2019-02-25T05:01:17.299Z,32.58
2019-02-25T05:03:48.548Z,29.80
2019-02-25T05:06:19.899Z,30.77
2019-02-25T05:09:02.969Z,28.23
2019-02-25T05:11:37.637Z,27.52
2019-02-25T05:14:08.845Z,26.77
2019-02-25T05:16:40.366Z,26.33
2019-02-25T05:19:11.661Z,29.37
2019-02-25T05:21:43.011Z,31.25
2019-02-25T05:24:14.679Z,32.63
2019-02-25T05:26:46.011Z,31.70
2019-02-25T05:29:18.075Z,29.05
2019-02-25T05:31:49.443Z,33.28
2019-02-25T05:34:20.910Z,31.02
2019-02-25T05:36:52.078Z,31.55
2019-02-25T05:39:23.449Z,36.53
2019-02-25T05:41:54.628Z,36.08
2019-02-25T05:44:26.236Z,39.18
2019-02-25T05:46:57.315Z,44.48
2019-02-25T05:49:28.875Z,39.33
2019-02-25T05:52:00.167Z,37.70
2019-02-25T05:54:31.493Z,36.25
2019-02-25T05:57:03.029Z,39.42
2019-02-25T05:59:35.502Z,35.65
2019-02-25T06:02:06.821Z,32.33
2019-02-25T06:04:38.746Z,28.10
2019-02-25T06:07:10.561Z,29.52
2019-02-25T06:09:41.893Z,30.20
2019-02-25T06:12:13.197Z,32.30
2019-02-25T06:14:44.465Z,32.95
2019-02-25T06:17:15.706Z,26.85
2019-02-25T06:19:46.854Z,30.85
2019-02-25T06:22:18.059Z,33.78
2019-02-25T06:24:49.310Z,41.55
2019-02-25T06:27:30.297Z,33.67
2019-02-25T06:29:53.618Z,29.12
2019-02-25T06:32:26.069Z,25.82
2019-02-25T06:34:57.520Z,23.62
2019-02-25T06:37:28.601Z,26.65
2019-02-25T06:39:59.774Z,26.45
2019-02-25T06:42:31.069Z,29.48
2019-02-25T06:45:02.306Z,30.20
2019-02-25T06:47:33.622Z,27.65
2019-02-25T06:50:05.011Z,29.15
2019-02-25T06:52:36.218Z,25.02
2019-02-25T06:55:08.589Z,22.70
2019-02-25T06:57:41.053Z,23.33
2019-02-25T07:00:15.911Z,33.70
2019-02-25T07:02:47.514Z,30.88
2019-02-25T07:05:24.383Z,31.55
2019-02-25T07:07:58.543Z,26.35
2019-02-25T07:10:49.220Z,27.13
2019-02-25T07:13:35.793Z,28.42
2019-02-25T07:16:32.078Z,27.85
2019-02-25T07:19:20.779Z,26.85
2019-02-25T07:22:11.025Z,24.30
2019-02-25T07:24:55.778Z,21.90
2019-02-25T07:27:44.714Z,23.35
2019-02-25T07:30:37.821Z,25.20
2019-02-25T07:33:38.967Z,27.13
2019-02-25T07:36:29.109Z,19.80
2019-02-25T07:39:31.754Z,19.07
2019-02-25T07:42:14.008Z,14.73
2019-02-25T07:45:07.030Z,14.93
2019-02-25T07:48:06.199Z,15.65
2019-02-25T07:50:56.279Z,15.43
2019-02-25T07:53:41.888Z,15.32
2019-02-25T07:56:22.546Z,14.63
2019-02-25T07:59:03.121Z,17.63
2019-02-25T08:01:56.201Z,15.35
2019-02-25T08:04:38.636Z,15.45
2019-02-25T08:07:27.812Z,15.30
2019-02-25T08:10:30.098Z,25.45
2019-02-25T08:13:08.001Z,26.27
2019-02-25T08:15:45.716Z,25.75
2019-02-25T08:18:37.262Z,20.32
2019-02-25T08:21:20.659Z,21.55
2019-02-25T08:24:30.647Z,21.00
2019-02-25T08:27:12.428Z,21.85
2019-02-25T08:29:58.786Z,17.07
2019-02-25T08:33:11.664Z,15.80
2019-02-25T08:36:24.012Z,16.33
2019-02-25T08:39:38.537Z,16.23
2019-02-25T08:42:14.964Z,17.60
2019-02-25T08:44:54.100Z,16.17
2019-02-25T08:47:44.307Z,27.57
2019-02-25T08:50:15.844Z,32.57
2019-02-25T08:52:47.571Z,26.90
2019-02-25T08:55:18.989Z,33.83
2019-02-25T08:57:51.357Z,32.10
2019-02-25T09:00:22.656Z,27.80
2019-02-25T09:02:54.067Z,18.83
2019-02-25T09:05:25.134Z,33.50
2019-02-25T09:07:57.449Z,19.17
2019-02-25T09:10:28.885Z,16.97
2019-02-25T09:13:00.230Z,17.40
2019-02-25T09:15:32.547Z,16.20
2019-02-25T09:18:03.119Z,25.40
2019-02-25T09:20:34.388Z,16.70
2019-02-25T09:23:05.786Z,14.47
2019-02-25T09:25:37.055Z,14.17
2019-02-25T09:28:08.492Z,15.07
2019-02-25T09:30:39.871Z,19.27
2019-02-25T09:33:12.448Z,15.67
2019-02-25T09:35:43.754Z,21.77
2019-02-25T09:38:15.199Z,16.97
2019-02-25T09:40:46.531Z,15.50
2019-02-25T09:43:17.767Z,17.93
2019-02-25T09:45:50.042Z,18.97
2019-02-25T09:48:21.382Z,15.10
2019-02-25T09:50:52.735Z,15.93
2019-02-25T09:53:24.050Z,21.97
2019-02-25T09:55:56.710Z,14.40
2019-02-25T09:58:28.322Z,16.50
2019-02-25T10:01:00.155Z,19.70
2019-02-25T10:03:31.591Z,15.23
2019-02-25T10:06:03.666Z,16.47
2019-02-25T10:08:36.430Z,24.20
2019-02-25T10:11:07.678Z,20.93
2019-02-25T10:13:51.811Z,17.47
2019-02-25T10:16:23.383Z,28.47
2019-02-25T10:18:55.177Z,23.87
2019-02-25T10:21:26.474Z,26.53
2019-02-25T10:23:57.525Z,31.10
2019-02-25T10:26:29.182Z,28.60
2019-02-25T10:29:00.464Z,27.80
2019-02-25T10:31:31.673Z,20.27
2019-02-25T10:34:02.847Z,28.77
2019-02-25T10:36:34.175Z,23.80
2019-02-25T10:39:09.085Z,24.67
2019-02-25T10:41:40.469Z,25.97
2019-02-25T10:44:11.695Z,25.93
2019-02-25T10:46:44.830Z,26.53
2019-02-25T10:49:15.999Z,22.03
2019-02-25T10:51:47.534Z,25.87
2019-02-25T10:54:20.768Z,24.37
2019-02-25T10:57:07.755Z,18.40
2019-02-25T10:59:41.449Z,21.30
2019-02-25T11:02:13.690Z,23.37
2019-02-25T11:04:47.374Z,23.93
2019-02-25T11:07:19.090Z,18.63
2019-02-25T11:10:04.318Z,16.20
2019-02-25T11:12:42.977Z,26.47
2019-02-25T11:15:15.919Z,20.27
2019-02-25T11:17:47.648Z,28.53
2019-02-25T11:20:20.213Z,17.43
2019-02-25T11:22:52.646Z,31.20
2019-02-25T11:25:25.804Z,18.53
2019-02-25T11:27:56.998Z,26.27
2019-02-25T11:30:29.559Z,25.07
2019-02-25T11:33:00.934Z,16.77
2019-02-25T11:35:45.554Z,19.03
2019-02-25T11:38:16.702Z,20.63
2019-02-25T11:40:48.967Z,16.90
2019-02-25T11:43:21.602Z,19.13
2019-02-25T11:45:53.133Z,19.13
2019-02-25T11:48:24.954Z,19.40
2019-02-25T11:50:56.349Z,31.53
2019-02-25T11:53:28.257Z,26.73
2019-02-25T11:55:59.529Z,22.80
2019-02-25T11:58:30.991Z,22.30
2019-02-25T12:01:02.302Z,19.20
2019-02-25T12:03:34.781Z,21.90
2019-02-25T12:06:06.190Z,19.90
2019-02-25T12:08:48.766Z,18.77
2019-02-25T12:11:19.999Z,18.97
2019-02-25T12:14:10.049Z,17.30
2019-02-25T12:16:41.479Z,17.93
2019-02-25T12:19:18.022Z,18.30
2019-02-25T12:21:45.687Z,15.87
2019-02-25T12:24:16.998Z,16.97
2019-02-25T12:26:48.403Z,17.40
2019-02-25T12:29:19.673Z,17.27
2019-02-25T12:31:51.433Z,17.13
2019-02-25T12:34:22.740Z,16.70
2019-02-25T12:36:54.089Z,17.67
2019-02-25T12:39:25.442Z,17.23
2019-02-25T12:41:56.789Z,17.80
2019-02-25T12:44:28.111Z,17.20
2019-02-25T12:47:00.294Z,16.97
2019-02-25T12:49:31.523Z,18.50
2019-02-25T12:52:02.813Z,19.23
2019-02-25T12:54:34.233Z,20.10
2019-02-25T12:57:05.626Z,19.70
2019-02-25T12:59:36.873Z,18.90
2019-02-25T13:02:08.209Z,17.93
2019-02-25T13:04:39.783Z,19.70
2019-02-25T13:07:11.044Z,19.30
2019-02-25T13:09:42.257Z,18.93
2019-02-25T13:12:13.536Z,18.90
2019-02-25T13:14:44.743Z,18.13
2019-02-25T13:17:16.050Z,18.40
2019-02-25T13:19:47.387Z,15.03
2019-02-25T13:22:18.810Z,13.90
2019-02-25T13:24:50.031Z,14.50
2019-02-25T13:27:21.374Z,16.50
2019-02-25T13:29:53.784Z,15.40
2019-02-25T13:32:25.114Z,15.37
2019-02-25T13:34:56.449Z,15.50
2019-02-25T13:37:28.088Z,16.47
2019-02-25T13:39:59.232Z,15.20
2019-02-25T13:42:31.561Z,14.43
2019-02-25T13:45:21.602Z,15.43
2019-02-25T13:47:53.007Z,14.50
2019-02-25T13:50:24.339Z,17.30
2019-02-25T13:52:56.411Z,15.17
2019-02-25T13:55:27.672Z,19.87
2019-02-25T13:57:59.056Z,18.23
2019-02-25T14:00:30.324Z,15.43
2019-02-25T14:03:03.295Z,20.53
2019-02-25T14:05:34.808Z,19.03
2019-02-25T14:08:06.218Z,19.53
2019-02-25T14:10:37.595Z,15.67
2019-02-25T14:13:09.176Z,22.03
2019-02-25T14:15:40.421Z,22.67
2019-02-25T14:18:11.837Z,18.77
2019-02-25T14:20:43.538Z,13.90
2019-02-25T14:23:16.133Z,17.47
2019-02-25T14:25:47.719Z,13.57
2019-02-25T14:28:19.294Z,14.20
2019-02-25T14:30:51.643Z,14.37
2019-02-25T14:33:23.661Z,15.80
2019-02-25T14:35:56.569Z,14.70
2019-02-25T14:38:29.998Z,14.43
2019-02-25T14:41:01.897Z,14.07
2019-02-25T14:43:41.769Z,14.90
2019-02-25T14:46:11.805Z,14.70
2019-02-25T14:48:41.604Z,17.33
2019-02-25T14:51:15.834Z,14.70
2019-02-25T14:53:50.042Z,16.73
2019-02-25T14:56:22.143Z,19.67
2019-02-25T14:58:53.993Z,15.90
2019-02-25T15:01:27.041Z,15.70
2019-02-25T15:03:59.734Z,15.70
2019-02-25T15:06:32.563Z,17.60
2019-02-25T15:09:05.572Z,17.60
2019-02-25T15:11:39.479Z,17.60
2019-02-25T15:14:12.864Z,57.13
2019-02-25T15:16:44.170Z,25.93
2019-02-25T15:19:15.485Z,21.67
2019-02-25T15:21:47.588Z,26.20
2019-02-25T15:24:20.007Z,23.27
2019-02-25T15:26:51.483Z,25.23
2019-02-25T15:29:25.915Z,20.70
2019-02-25T15:31:58.954Z,17.60
2019-02-25T15:34:30.325Z,28.37
2019-02-25T15:37:02.672Z,18.53
2019-02-25T15:39:34.874Z,18.83
2019-02-25T15:42:08.160Z,20.33
2019-02-25T15:44:42.333Z,19.47
2019-02-25T15:47:15.092Z,21.40
2019-02-25T15:49:46.629Z,24.83
2019-02-25T15:52:18.801Z,21.80
2019-02-25T15:54:51.421Z,27.93
2019-02-25T15:57:24.519Z,27.10
2019-02-25T15:59:56.008Z,19.43
2019-02-25T16:02:27.299Z,15.87
2019-02-25T16:04:58.668Z,16.03
2019-02-25T16:07:31.715Z,15.80
2019-02-25T16:10:06.788Z,17.13
2019-02-25T16:12:38.349Z,22.57
2019-02-25T16:15:14.970Z,28.10
2019-02-25T16:17:49.585Z,26.53
2019-02-25T16:20:20.421Z,21.70
2019-02-25T16:22:51.800Z,41.17
2019-02-25T16:25:25.153Z,50.00
2019-02-25T16:27:58.229Z,28.63
2019-02-25T16:30:33.653Z,22.45
2019-02-25T16:33:07.293Z,21.67
2019-02-25T16:35:38.983Z,22.70
2019-02-25T16:38:11.412Z,21.30
2019-02-25T16:40:42.796Z,25.23
2019-02-25T16:43:14.338Z,37.33
2019-02-25T16:45:47.038Z,22.05
2019-02-25T16:48:19.263Z,21.57
2019-02-25T16:50:51.510Z,21.65
2019-02-25T16:53:22.835Z,26.62
2019-02-25T16:55:54.582Z,37.33
2019-02-25T16:58:27.608Z,28.55
2019-02-25T17:01:01.203Z,38.55
2019-02-25T17:03:34.818Z,51.60
2019-02-25T17:06:06.783Z,47.55
2019-02-25T17:08:39.026Z,46.43
2019-02-25T17:11:10.849Z,35.58
2019-02-25T17:13:43.744Z,34.15
2019-02-25T17:16:18.454Z,63.98
2019-02-25T17:18:48.271Z,39.27
2019-02-25T17:21:20.968Z,87.12
2019-02-25T17:24:11.078Z,36.30
2019-02-25T17:26:43.550Z,24.50
2019-02-25T17:29:15.787Z,29.95
2019-02-25T17:31:47.206Z,20.43
2019-02-25T17:34:19.233Z,21.77
2019-02-25T17:36:52.895Z,20.35
2019-02-25T17:39:24.369Z,19.65
2019-02-25T17:41:57.280Z,20.40
2019-02-25T17:44:30.012Z,19.75
2019-02-25T17:47:02.156Z,19.52
2019-02-25T17:49:35.832Z,21.52
2019-02-25T17:52:07.865Z,20.65
2019-02-25T17:54:39.991Z,21.07
2019-02-25T17:57:13.671Z,19.32
2019-02-25T17:59:46.253Z,19.82
2019-02-25T18:02:18.047Z,29.23
2019-02-25T18:04:51.291Z,24.18
2019-02-25T18:07:25.642Z,24.37
2019-02-25T18:09:59.359Z,25.62
2019-02-25T18:12:36.382Z,22.55
2019-02-25T18:15:11.589Z,21.45
2019-02-25T18:17:47.164Z,20.20
2019-02-25T18:20:21.410Z,20.30
2019-02-25T18:22:55.920Z,19.45
2019-02-25T18:25:29.674Z,21.55
2019-02-25T18:28:04.403Z,20.75
2019-02-25T18:30:38.409Z,32.88
2019-02-25T18:33:12.670Z,23.67
2019-02-25T18:35:47.125Z,22.20
2019-02-25T18:38:21.593Z,20.92
2019-02-25T18:41:00.405Z,20.82
2019-02-25T18:43:34.896Z,19.57
2019-02-25T18:46:07.437Z,24.35
2019-02-25T18:48:40.862Z,23.87
2019-02-25T18:51:35.021Z,25.50
2019-02-25T18:54:07.262Z,23.22
2019-02-25T18:56:40.341Z,22.30
2019-02-25T18:59:15.354Z,24.27
2019-02-25T19:01:47.691Z,20.85
2019-02-25T19:04:21.880Z,19.82
2019-02-25T19:06:54.946Z,20.08
2019-02-25T19:09:28.433Z,18.95
2019-02-25T19:12:01.865Z,19.45
2019-02-25T19:14:35.466Z,24.85
2019-02-25T19:17:08.894Z,44.45
2019-02-25T19:19:42.582Z,57.05
2019-02-25T19:22:17.866Z,51.98
2019-02-25T19:24:51.892Z,37.42
2019-02-25T19:27:27.220Z,31.90
2019-02-25T19:30:11.161Z,31.42
2019-02-25T19:32:44.373Z,46.68
2019-02-25T19:35:28.713Z,70.47
2019-02-25T19:38:03.654Z,80.77
2019-02-25T19:40:40.279Z,54.88
2019-02-25T19:43:12.950Z,54.88
2019-02-25T19:45:46.464Z,39.78
2019-02-25T19:48:21.777Z,46.35
2019-02-25T19:50:56.129Z,64.95
2019-02-25T19:53:33.778Z,52.85
2019-02-25T19:56:05.192Z,42.58
2019-02-25T19:58:41.136Z,37.08
2019-02-25T20:01:14.749Z,30.32
2019-02-25T20:03:48.457Z,38.10
2019-02-25T20:06:23.526Z,26.80
2019-02-25T20:08:56.401Z,25.23
2019-02-25T20:11:28.416Z,23.60
2019-02-25T20:14:01.585Z,21.57
2019-02-25T20:16:33.074Z,23.65
2019-02-25T20:19:05.164Z,23.87
2019-02-25T20:21:37.557Z,27.17
2019-02-25T20:24:12.367Z,23.25
2019-02-25T20:26:41.932Z,25.27
2019-02-25T20:29:13.397Z,23.50
2019-02-25T20:31:44.845Z,25.48
2019-02-25T20:34:18.504Z,23.60
2019-02-25T20:36:52.520Z,22.58
2019-02-25T20:39:23.280Z,23.45
2019-02-25T20:41:56.514Z,22.27
2019-02-25T20:44:28.449Z,22.25
2019-02-25T20:47:01.961Z,22.17
2019-02-25T20:49:33.352Z,22.07
2019-02-25T20:52:05.613Z,21.77
2019-02-25T20:54:38.816Z,20.50
2019-02-25T20:57:10.590Z,19.57
2019-02-25T20:59:42.634Z,20.72
2019-02-25T21:02:16.287Z,20.30
2019-02-25T21:04:48.600Z,21.25
2019-02-25T21:07:19.846Z,20.85
2019-02-25T21:09:51.072Z,22.10
2019-02-25T21:12:22.796Z,20.45
2019-02-25T21:15:13.863Z,21.27
2019-02-25T21:17:45.203Z,20.68
2019-02-25T21:20:16.449Z,21.05
2019-02-25T21:22:47.753Z,19.82
2019-02-25T21:25:22.165Z,20.85
2019-02-25T21:28:06.684Z,21.12
2019-02-25T21:30:41.196Z,22.22
2019-02-25T21:33:13.287Z,22.27
2019-02-25T21:35:43.924Z,23.95
2019-02-25T21:38:22.205Z,24.70
2019-02-25T21:40:54.916Z,24.07
2019-02-25T21:43:28.949Z,25.40
2019-02-25T21:46:01.641Z,23.90
2019-02-25T21:48:34.876Z,22.65
2019-02-25T21:51:08.030Z,22.67
2019-02-25T21:53:39.777Z,22.13
2019-02-25T21:56:11.097Z,23.98
2019-02-25T21:58:45.068Z,22.25
2019-02-25T22:01:16.378Z,21.10
2019-02-25T22:03:49.907Z,26.42
2019-02-25T22:06:22.624Z,74.58
2019-02-25T22:08:54.168Z,54.75
2019-02-25T22:11:26.749Z,75.65
2019-02-25T22:13:58.149Z,50.75
2019-02-25T22:16:30.029Z,37.30
2019-02-25T22:19:02.752Z,46.60
2019-02-25T22:21:34.160Z,71.10
2019-02-25T22:24:07.433Z,53.08
2019-02-25T22:26:55.861Z,34.73
2019-02-25T22:29:26.963Z,74.47
2019-02-25T22:31:59.691Z,29.57
2019-02-25T22:34:31.295Z,40.88
2019-02-25T22:37:02.693Z,38.98
2019-02-25T22:39:33.972Z,72.37
2019-02-25T22:42:07.226Z,51.18
2019-02-25T22:44:37.968Z,66.02
2019-02-25T22:47:11.202Z,62.27
2019-02-25T22:49:42.295Z,28.57
2019-02-25T22:52:13.651Z,47.55
2019-02-25T22:54:45.817Z,36.20
2019-02-25T22:57:18.719Z,61.58
2019-02-25T22:59:51.193Z,55.17
2019-02-25T23:02:25.117Z,53.10
2019-02-25T23:04:56.276Z,56.68
2019-02-25T23:07:27.683Z,64.90
2019-02-25T23:10:12.608Z,69.95
2019-02-25T23:12:43.158Z,51.77
2019-02-25T23:15:15.632Z,50.38
2019-02-25T23:17:47.006Z,55.35
2019-02-25T23:20:36.927Z,66.00
2019-02-25T23:23:08.390Z,65.85
2019-02-25T23:25:39.547Z,67.75
2019-02-25T23:28:10.869Z,58.48
2019-02-25T23:30:42.196Z,40.33
2019-02-25T23:33:14.444Z,39.30
2019-02-25T23:35:46.961Z,60.85
2019-02-25T23:38:18.801Z,44.70
2019-02-25T23:40:50.089Z,35.85
2019-02-25T23:43:22.158Z,35.65
2019-02-25T23:45:53.306Z,32.40
2019-02-25T23:48:26.734Z,51.28
2019-02-25T23:50:59.468Z,54.08
2019-02-25T23:53:31.125Z,44.58
2019-02-25T23:56:03.186Z,43.17
2019-02-25T23:58:38.345Z,31.50
